Lake Como, New Jersey
Current Conditions -  °F | °C
As of 2:55 PM on Friday 24 Oct 2014 (Local Time) from KBLM Reporting Station
Clear Clear  
Wind Chill: 64°   Ceiling: Unl
Heat Index: 64°   Visibility: 10mi
Dew Point: 45°   Wind: 14mph
Humidity: 49%   Direction: 320°NW
Pressure: 29.77"   Gusts: 18mph
Location:  40.1681°N, 74.0774°W
Report Text: KBLM 241855Z AUTO 32012G16KT 10SM CLR 18/07 A2977 RMK AO1
Loading
Personal Weather Stations






























Interactive Weather Map
Tropical Storm Tracking
New forecast layout! Learn more

10-Day Weather Forecast

Advertisements
Track Severe Weather on mobile